Погода Червонена 2 недели

Подляское воеводство, Польша

17 - 30 июля
  • 17июля
    Сегодня
    +15°
    +29°
    Ясно и безоблачно
    ВремяПогодаТемператураВлажностьДавлениеВетер, м/сВероятность осадков
    02:00Небольшая облачность, возможен дождь с грозой+20°C91 %746 мм1.5 м/с42 %
    05:00Небольшая облачность+19°C93 %747 мм3.5 м/с3 %
    08:00Практически безоблачно+23°C88 %749 мм2.5 м/с2 %
    11:00Практически безоблачно+27°C51 %749 мм4.2 м/с2 %
    14:00Ясно и безоблачно+28°C44 %749 мм4.5 м/с2 %
    17:00Ясно и безоблачно+28°C38 %749 мм4.2 м/с1 %
    20:00Облачно с прояснениями+24°C50 %750 мм2.5 м/с2 %
    23:00Небольшая облачность+19°C70 %751 мм1.9 м/с2 %
  • 18июля
    Четверг
    +13°
    +26°
    Практически безоблачно
    ВремяПогодаТемператураВлажностьДавлениеВетер, м/сВероятность осадков
    02:00Ясно и безоблачно+17°C82 %751 мм2.0 м/с2 %
    05:00Ясно и безоблачно+16°C86 %751 мм1.7 м/с2 %
    08:00Ясно и безоблачно+20°C68 %752 мм2.0 м/с2 %
    11:00Небольшая облачность и лёгкий дождик+24°C50 %752 мм3.8 м/с20 %
    14:00Практически безоблачно+25°C45 %752 мм4.6 м/с29 %
    17:00Небольшая облачность+25°C46 %752 мм5.5 м/с5 %
    20:00Ясно и безоблачно+23°C57 %752 мм3.4 м/с2 %
    23:00Облачно с прояснениями+18°C75 %753 мм3.0 м/с2 %
  • 19июля
    Пятница
    +12°
    +25°
    Ясно и безоблачно
    ВремяПогодаТемператураВлажностьДавлениеВетер, м/сВероятность осадков
    02:00Практически безоблачно+15°C90 %753 мм2.2 м/с2 %
    05:00Ясно и безоблачно+14°C95 %752 мм2.0 м/с2 %
    08:00Ясно и безоблачно+18°C72 %753 мм2.1 м/с2 %
    11:00Ясно и безоблачно+22°C53 %752 мм3.4 м/с2 %
    14:00Ясно и безоблачно+24°C46 %752 мм4.3 м/с2 %
    17:00Ясно и безоблачно+24°C43 %751 мм3.7 м/с2 %
    20:00Ясно и безоблачно+22°C53 %750 мм2.0 м/с2 %
    23:00Практически безоблачно+16°C73 %750 мм2.0 м/с2 %
  • 20июля
    Суббота
    +13°
    +26°
    Ясно и безоблачно
    ВремяПогодаТемператураВлажностьДавлениеВетер, м/сВероятность осадков
    02:00Облачно с прояснениями+14°C91 %749 мм1.9 м/с2 %
    05:00Небольшая облачность+12°C94 %748 мм1.8 м/с2 %
    08:00Облачно с прояснениями+17°C75 %748 мм1.8 м/с2 %
    11:00Ясно и безоблачно+22°C55 %748 мм1.8 м/с2 %
    14:00Ясно и безоблачно+25°C43 %747 мм2.0 м/с4 %
    17:00Ясно и безоблачно+25°C39 %746 мм1.9 м/с3 %
    20:00Ясно и безоблачно+23°C58 %745 мм1.7 м/с2 %
    23:00Ясно и безоблачно+18°C72 %745 мм2.2 м/с2 %
  • 21июля
    Воскресенье
    +14°
    +27°
    Ясно и безоблачно
    ВремяПогодаТемператураВлажностьДавлениеВетер, м/сВероятность осадков
    02:00Ясно и безоблачно+16°C86 %745 мм1.9 м/с2 %
    05:00Ясно и безоблачно+14°C95 %744 мм1.7 м/с2 %
    08:00Ясно и безоблачно+20°C71 %744 мм1.2 м/с2 %
    11:00Ясно и безоблачно+24°C48 %744 мм0.9 м/с4 %
    14:00Ясно и безоблачно+26°C40 %743 мм1.3 м/с5 %
    17:00Практически безоблачно+27°C35 %742 мм1.6 м/с4 %
    20:00Ясно и безоблачно+23°C49 %743 мм2.2 м/с2 %
    23:00Ясно и безоблачно+18°C53 %742 мм2.9 м/с2 %
Мы используем cookies
Соглашаюсь